Time;durP1;ratioP1;P1;durP2;ratioP2;P2;SDS_P1;SDS_P2;PMS_P1;PMS_P2;Temp;Humidity;BMP_temperature;BMP_pressure;BME280_temperature;BME280_humidity;BME280_pressure;Samples;Min_cycle;Max_cycle;Signal;HPM_P1;HPM_P2
2023/02/25 00:01:45;;;;;;;9.60;7.23;;;;;;;5.87;90.34;97581.75;5132766;27;42619;-80
2023/02/25 00:04:13;;;;;;;10.67;7.53;;;;;;;5.77;91.07;97571.00;5134385;27;42215;-79
2023/02/25 00:06:41;;;;;;;10.10;6.97;;;;;;;5.71;91.03;97574.00;5133029;27;38871;-80
2023/02/25 00:09:10;;;;;;;12.03;7.63;;;;;;;5.62;90.94;97563.25;5133072;27;41791;-79
2023/02/25 00:11:39;;;;;;;8.97;7.33;;;;;;;5.70;91.38;97577.56;5132800;27;41811;-79
2023/02/25 00:14:09;;;;;;;9.43;7.33;;;;;;;5.68;91.58;97573.38;5133116;27;42684;-81
2023/02/25 00:16:37;;;;;;;8.67;6.83;;;;;;;5.72;91.19;97577.47;5115979;27;38863;-81
2023/02/25 00:19:05;;;;;;;7.90;6.37;;;;;;;5.61;91.35;97559.78;5115915;27;41219;-80
2023/02/25 00:21:33;;;;;;;7.40;6.00;;;;;;;5.75;91.14;97572.03;5132691;27;42713;-79
2023/02/25 00:24:01;;;;;;;8.17;6.57;;;;;;;5.71;91.22;97575.78;5132902;27;41006;-80
2023/02/25 00:26:29;;;;;;;7.43;5.70;;;;;;;5.66;91.22;97572.63;5132910;27;38904;-79
2023/02/25 00:28:58;;;;;;;11.40;7.23;;;;;;;5.56;90.88;97576.78;5133203;27;42733;-79
2023/02/25 00:31:26;;;;;;;6.67;5.97;;;;;;;5.40;90.81;97576.88;5133725;27;43715;-80
2023/02/25 00:33:54;;;;;;;7.87;6.00;;;;;;;5.16;90.77;97553.00;5115799;27;41136;-79
2023/02/25 00:36:24;;;;;;;9.33;6.17;;;;;;;5.27;90.56;97582.03;5115501;27;40429;-79
2023/02/25 00:38:54;;;;;;;8.77;5.77;;;;;;;5.16;91.05;97581.84;5132984;27;41892;-79
2023/02/25 00:41:25;;;;;;;13.90;6.67;;;;;;;5.07;91.49;97585.03;5115338;27;41728;-79
2023/02/25 00:43:55;;;;;;;7.23;6.07;;;;;;;5.00;91.44;97586.34;5132760;27;42400;-79
2023/02/25 00:46:25;;;;;;;9.20;6.30;;;;;;;4.93;91.74;97587.66;5115133;27;39010;-80
2023/02/25 00:48:52;;;;;;;7.20;6.10;;;;;;;4.89;91.41;97594.00;5115361;27;43433;-79
2023/02/25 00:51:22;;;;;;;6.97;6.00;;;;;;;4.81;91.17;97589.25;5132067;27;41558;-79
2023/02/25 00:53:51;;;;;;;7.77;6.40;;;;;;;4.75;91.37;97594.00;5116258;27;41945;-80
2023/02/25 00:56:19;;;;;;;9.13;5.30;;;;;;;4.66;91.51;97593.59;5115075;27;38911;-79
2023/02/25 00:58:49;;;;;;;8.50;5.23;;;;;;;4.64;91.62;97595.47;5115367;27;43149;-80
2023/02/25 01:01:19;;;;;;;6.13;4.77;;;;;;;4.57;92.24;97596.78;5115383;27;44595;-79
2023/02/25 01:03:49;;;;;;;6.90;4.57;;;;;;;4.60;91.78;97601.81;5132433;27;42074;-79
2023/02/25 01:06:17;;;;;;;8.60;5.10;;;;;;;4.59;92.20;97594.88;5132501;27;39109;-79
2023/02/25 01:08:45;;;;;;;6.60;4.63;;;;;;;4.61;92.80;97597.41;5132366;27;41950;-79
2023/02/25 01:11:16;;;;;;;6.10;4.10;;;;;;;4.65;92.43;97599.78;5115116;27;42636;-79
2023/02/25 01:13:44;;;;;;;6.17;4.30;;;;;;;4.64;92.16;97605.97;5129293;27;42165;-80
2023/02/25 01:16:14;;;;;;;6.80;4.17;;;;;;;4.44;92.05;97593.19;5132270;27;39878;-80
2023/02/25 01:18:43;;;;;;;5.63;3.60;;;;;;;4.57;91.60;97622.16;5114705;27;42375;-79
2023/02/25 01:21:17;;;;;;;5.53;3.80;;;;;;;4.51;91.43;97618.09;5132786;27;42707;-79
2023/02/25 01:23:46;;;;;;;6.03;4.00;;;;;;;4.42;91.81;97612.53;5129039;27;43125;-79
2023/02/25 01:26:14;;;;;;;9.10;3.97;;;;;;;4.45;91.96;97628.91;5132139;27;39724;-80
2023/02/25 01:28:42;;;;;;;7.97;4.20;;;;;;;4.38;92.18;97622.34;5131986;27;42016;-80
2023/02/25 01:31:17;;;;;;;4.67;3.67;;;;;;;4.32;91.91;97607.00;5131872;27;42914;-79
2023/02/25 01:33:46;;;;;;;9.27;3.73;;;;;;;4.40;92.23;97619.66;5115089;27;41273;-79
2023/02/25 01:36:15;;;;;;;4.83;3.23;;;;;;;4.59;92.06;97636.84;5114751;27;38913;-79
2023/02/25 01:38:43;;;;;;;6.07;3.00;;;;;;;4.58;91.56;97624.66;5114751;27;40670;-79
2023/02/25 01:41:11;;;;;;;3.87;2.53;;;;;;;4.51;91.43;97604.97;5131382;27;42716;-80
2023/02/25 01:43:40;;;;;;;5.43;3.17;;;;;;;4.62;90.84;97620.09;5131860;27;42343;-79
2023/02/25 01:46:08;;;;;;;5.40;2.60;;;;;;;4.69;90.46;97627.53;5114556;27;39236;-79
2023/02/25 01:48:40;;;;;;;4.83;2.93;;;;;;;4.57;89.59;97607.25;5114925;27;40608;-80
2023/02/25 01:51:11;;;;;;;4.37;2.30;;;;;;;4.55;89.31;97603.88;5129486;27;42939;-79
2023/02/25 01:53:47;;;;;;;3.77;2.67;;;;;;;4.64;89.46;97624.31;5114699;27;41113;-80
2023/02/25 01:56:20;;;;;;;4.77;2.37;;;;;;;4.66;89.65;97619.81;5130161;27;39925;-80
2023/02/25 01:58:49;;;;;;;4.17;2.73;;;;;;;4.59;88.81;97609.78;5115431;27;40914;-79
2023/02/25 02:01:20;;;;;;;4.93;2.23;;;;;;;4.74;89.03;97618.53;5117908;27;41737;-81
2023/02/25 02:03:50;;;;;;;4.73;2.43;;;;;;;4.78;89.14;97627.91;5118114;27;41243;-80
2023/02/25 02:06:21;;;;;;;6.40;3.10;;;;;;;4.81;88.70;97625.13;5117933;27;38820;-80
2023/02/25 02:08:51;;;;;;;6.00;3.03;;;;;;;4.86;88.68;97630.91;5133190;27;42662;-79
2023/02/25 02:11:19;;;;;;;5.67;2.87;;;;;;;4.70;88.21;97597.72;5134440;27;43268;-80
2023/02/25 02:13:53;;;;;;;7.17;2.97;;;;;;;4.93;88.49;97624.38;5135315;27;42439;-80
2023/02/25 02:16:40;;;;;;;5.83;2.50;;;;;;;4.96;88.20;97624.19;5135098;27;39956;-80
2023/02/25 02:19:27;;;;;;;6.73;2.73;;;;;;;4.85;88.05;97605.63;5117676;27;40291;-79
2023/02/25 02:22:05;;;;;;;7.50;3.30;;;;;;;4.97;87.97;97631.13;5117598;27;41730;-79
2023/02/25 02:25:05;;;;;;;6.63;3.63;;;;;;;4.95;87.87;97627.72;5117583;27;41913;-79
2023/02/25 02:27:55;;;;;;;4.73;3.20;;;;;;;4.94;87.87;97619.06;5117809;27;38868;-79
2023/02/25 02:30:41;;;;;;;6.27;3.40;;;;;;;4.91;87.60;97603.50;5135077;27;40643;-80
2023/02/25 02:33:17;;;;;;;6.50;3.83;;;;;;;5.05;87.70;97628.91;5127713;27;41866;-79
2023/02/25 02:35:51;;;;;;;4.83;3.10;;;;;;;5.09;87.31;97630.38;5150840;27;42689;-79
2023/02/25 02:38:30;;;;;;;4.83;2.97;;;;;;;5.10;87.10;97634.69;5134970;27;40160;-80
2023/02/25 02:41:07;;;;;;;5.53;3.73;;;;;;;5.12;86.22;97635.44;5135563;27;40693;-79
2023/02/25 02:43:41;;;;;;;4.23;3.07;;;;;;;5.01;86.31;97616.88;5128090;27;41179;-80
2023/02/25 02:46:18;;;;;;;8.27;3.37;;;;;;;5.15;85.90;97629.19;5132438;27;42837;-79
2023/02/25 02:48:54;;;;;;;5.30;2.93;;;;;;;5.14;86.42;97628.34;5131073;27;40030;-79
2023/02/25 02:51:26;;;;;;;4.17;2.60;;;;;;;5.04;85.91;97606.22;5132100;27;41730;-80
2023/02/25 02:53:57;;;;;;;7.10;3.63;;;;;;;5.13;85.84;97631.91;5131224;27;43169;-80
2023/02/25 02:56:28;;;;;;;6.43;3.50;;;;;;;5.00;85.84;97609.94;5116489;27;42625;-80
2023/02/25 02:59:04;;;;;;;4.80;2.70;;;;;;;5.12;85.17;97640.69;5116669;27;41403;-80
2023/02/25 03:01:36;;;;;;;7.20;2.80;;;;;;;5.15;85.49;97644.94;5116962;27;42242;-82
2023/02/25 03:04:09;;;;;;;7.13;2.53;;;;;;;5.13;85.12;97636.31;5116625;27;43280;-80
2023/02/25 03:06:40;;;;;;;8.23;2.70;;;;;;;5.17;84.80;97643.91;5133827;27;42211;-80
2023/02/25 03:09:12;;;;;;;7.13;3.33;;;;;;;4.99;84.52;97618.75;5117190;27;38943;-80
2023/02/25 03:11:41;;;;;;;7.83;2.80;;;;;;;5.04;84.15;97635.06;5134196;27;41980;-78
2023/02/25 03:14:11;;;;;;;4.23;2.50;;;;;;;5.18;84.55;97650.84;5134363;27;43731;-79
2023/02/25 03:16:43;;;;;;;5.57;2.57;;;;;;;5.15;84.09;97645.78;5117124;27;42785;-79
2023/02/25 03:19:16;;;;;;;6.33;2.47;;;;;;;5.19;83.94;97657.78;5131308;27;40323;-79
2023/02/25 03:21:49;;;;;;;8.90;2.73;;;;;;;5.19;83.89;97649.91;5117525;27;40652;-79
2023/02/25 03:24:21;;;;;;;8.40;2.83;;;;;;;5.14;83.68;97638.00;5132480;27;43821;-80
2023/02/25 03:26:51;;;;;;;8.00;2.57;;;;;;;5.27;83.67;97655.53;5133540;27;42231;-80
2023/02/25 03:29:23;;;;;;;5.57;2.70;;;;;;;5.27;82.98;97647.66;5117147;27;39139;-79
2023/02/25 03:31:58;;;;;;;6.10;2.77;;;;;;;5.25;82.48;97644.28;5116840;27;40701;-78
2023/02/25 03:34:32;;;;;;;4.77;2.27;;;;;;;5.22;81.94;97656.72;5116832;27;43100;-80
2023/02/25 03:37:04;;;;;;;5.87;2.73;;;;;;;5.18;82.67;97644.75;5116420;27;42645;-80
2023/02/25 03:39:39;;;;;;;8.00;2.33;;;;;;;5.10;81.98;97637.31;5116885;27;38781;-79
2023/02/25 03:42:12;;;;;;;7.13;3.30;;;;;;;4.84;82.16;97619.66;5116238;27;41821;-81
2023/02/25 03:44:45;;;;;;;7.37;3.30;;;;;;;4.93;82.34;97645.38;5116858;27;42817;-82
2023/02/25 03:47:16;;;;;;;5.10;3.03;;;;;;;4.88;82.36;97647.41;5116677;27;42507;-79
2023/02/25 03:49:50;;;;;;;9.93;3.57;;;;;;;4.85;82.38;97655.44;5134087;27;40668;-80
2023/02/25 03:52:22;;;;;;;7.63;3.67;;;;;;;4.89;82.76;97664.84;5115927;27;42135;-80
2023/02/25 03:54:54;;;;;;;5.10;3.10;;;;;;;4.78;82.75;97651.50;5130225;27;42849;-79
2023/02/25 03:57:25;;;;;;;5.67;2.57;;;;;;;4.90;82.22;97674.41;5133774;27;42955;-79
2023/02/25 03:59:55;;;;;;;6.83;3.10;;;;;;;4.89;82.00;97662.22;5116690;27;38961;-79
2023/02/25 04:02:27;;;;;;;3.43;2.67;;;;;;;5.00;81.94;97680.78;5116256;27;41880;-79
2023/02/25 04:04:57;;;;;;;7.87;3.27;;;;;;;5.03;81.91;97688.47;5116233;27;42918;-79
2023/02/25 04:07:26;;;;;;;5.57;2.63;;;;;;;5.03;81.89;97683.25;5116276;27;41462;-79
2023/02/25 04:09:53;;;;;;;7.27;2.73;;;;;;;5.05;81.50;97700.59;5115969;27;38951;-79
2023/02/25 04:12:21;;;;;;;6.47;2.60;;;;;;;5.08;81.67;97696.91;5115921;27;40718;-80
2023/02/25 04:14:49;;;;;;;5.87;3.33;;;;;;;5.08;81.01;97696.91;5116010;27;41745;-79
2023/02/25 04:17:18;;;;;;;6.10;3.27;;;;;;;5.08;81.02;97702.16;5133300;27;43069;-80
2023/02/25 04:19:46;;;;;;;5.30;2.80;;;;;;;5.10;80.79;97710.78;5133204;27;40825;-79
2023/02/25 04:22:15;;;;;;;7.20;2.90;;;;;;;5.10;80.99;97704.69;5114928;27;40633;-79
2023/02/25 04:24:43;;;;;;;4.80;3.10;;;;;;;5.10;81.27;97710.78;5133972;27;42799;-79
2023/02/25 04:27:14;;;;;;;12.27;3.67;;;;;;;5.07;81.00;97706.56;5132776;27;41312;-79
2023/02/25 04:29:42;;;;;;;6.63;3.67;;;;;;;5.09;81.07;97709.09;5133041;27;40375;-79
2023/02/25 04:32:10;;;;;;;8.27;3.23;;;;;;;5.06;81.11;97709.31;5132709;27;41617;-79
2023/02/25 04:34:38;;;;;;;13.30;3.33;;;;;;;5.06;80.98;97698.81;5133093;27;42474;-82
2023/02/25 04:37:07;;;;;;;8.23;3.20;;;;;;;5.04;80.96;97704.13;5115255;27;41013;-78
2023/02/25 04:39:37;;;;;;;8.27;4.40;;;;;;;5.07;81.04;97704.91;5132427;27;40942;-79
2023/02/25 04:42:05;;;;;;;6.70;3.10;;;;;;;5.04;80.52;97711.16;5132316;27;41735;-79
2023/02/25 04:44:33;;;;;;;12.40;3.30;;;;;;;5.06;80.63;97704.06;5115511;27;41806;-82
2023/02/25 04:47:01;;;;;;;7.83;3.20;;;;;;;5.03;80.60;97710.31;5132750;27;42291;-80
2023/02/25 08:12:52;;;;;;;10.97;4.63;;;;;;;5.26;85.61;97800.81;5109315;28;21113;-78
2023/02/25 08:15:20;;;;;;;10.77;4.50;;;;;;;5.88;81.48;97814.69;5092086;28;39171;-79
2023/02/25 08:17:50;;;;;;;9.07;4.17;;;;;;;6.36;78.58;97818.72;5108991;28;42391;-78
2023/02/25 08:20:18;;;;;;;9.60;4.00;;;;;;;6.73;76.95;97825.13;5091626;28;41803;-79
2023/02/25 08:22:46;;;;;;;10.07;3.60;;;;;;;6.92;74.62;97829.25;5108976;28;42135;-80
2023/02/25 08:25:13;;;;;;;11.67;3.90;;;;;;;6.93;73.44;97839.66;5108731;28;39345;-79
2023/02/25 08:27:42;;;;;;;9.50;3.80;;;;;;;7.01;72.75;97842.66;5108638;28;40825;-78
2023/02/25 08:30:14;;;;;;;7.63;3.33;;;;;;;7.42;72.05;97836.47;5108837;28;42957;-79
2023/02/25 08:32:41;;;;;;;8.80;3.57;;;;;;;7.93;70.60;97840.03;5109374;28;42427;-78
2023/02/25 08:35:10;;;;;;;6.57;3.00;;;;;;;8.88;67.82;97845.69;5110115;28;39825;-79
2023/02/25 08:37:38;;;;;;;7.70;3.53;;;;;;;9.56;63.68;97863.56;5091455;28;40825;-80
2023/02/25 08:40:08;;;;;;;16.27;5.13;;;;;;;9.61;64.17;97852.66;5125754;27;42002;-79
2023/02/25 08:42:36;;;;;;;6.90;2.70;;;;;;;10.64;63.28;97862.38;5090994;28;42444;-79
2023/02/25 08:45:05;;;;;;;6.93;3.20;;;;;;;11.84;58.59;97887.94;5091698;28;38797;-79
2023/02/25 08:47:34;;;;;;;6.80;2.60;;;;;;;11.56;56.12;97893.78;5125381;27;41217;-79
2023/02/25 08:50:03;;;;;;;7.17;3.17;;;;;;;10.92;57.47;97855.75;5125549;27;41646;-79
2023/02/25 08:52:32;;;;;;;7.63;3.23;;;;;;;10.52;57.77;97873.91;5108056;28;40947;-79
2023/02/25 08:55:00;;;;;;;6.53;2.80;;;;;;;10.25;58.58;97872.47;5091331;28;40397;-80
2023/02/25 08:57:28;;;;;;;6.97;3.03;;;;;;;10.44;59.82;97866.59;5109614;28;41518;-79
2023/02/25 08:59:56;;;;;;;6.13;3.30;;;;;;;11.17;57.98;97863.41;5108533;28;43786;-79
2023/02/25 09:02:24;;;;;;;6.40;2.77;;;;;;;12.29;55.73;97886.84;5107893;28;41846;-80
2023/02/25 09:04:53;;;;;;;7.00;3.03;;;;;;;12.18;54.43;97896.56;5109481;28;41123;-80
2023/02/25 09:07:21;;;;;;;8.47;3.17;;;;;;;11.87;54.95;97876.22;5091030;28;40396;-81
2023/02/25 09:09:49;;;;;;;7.13;3.20;;;;;;;11.41;54.36;97884.44;5091104;28;42657;-79
2023/02/25 09:12:17;;;;;;;7.40;3.30;;;;;;;11.16;55.43;97874.97;5108752;28;42856;-80
2023/02/25 09:14:44;;;;;;;4.30;2.80;;;;;;;10.51;56.58;97843.16;5109366;28;39886;-80
2023/02/25 09:17:12;;;;;;;8.80;3.10;;;;;;;10.30;57.07;97870.31;5109032;28;41713;-80
2023/02/25 09:19:40;;;;;;;4.80;2.70;;;;;;;9.86;58.15;97851.66;5091086;28;42860;-79
2023/02/25 09:22:10;;;;;;;5.27;2.97;;;;;;;9.77;58.98;97858.47;5088729;28;42203;-79
2023/02/25 09:24:38;;;;;;;4.13;3.00;;;;;;;9.72;58.69;97864.13;5077097;28;39585;-79
2023/02/25 09:27:06;;;;;;;5.37;2.90;;;;;;;9.55;58.52;97846.03;5093947;28;41699;-80
2023/02/25 09:29:34;;;;;;;6.07;3.07;;;;;;;9.65;58.45;97859.38;5094175;28;42653;-81
2023/02/25 09:32:02;;;;;;;5.90;3.50;;;;;;;10.47;58.24;97861.06;5076805;28;40902;-80
2023/02/25 09:34:32;;;;;;;6.83;3.83;;;;;;;11.81;54.05;97877.56;5111238;28;39289;-83
2023/02/25 09:37:00;;;;;;;9.77;3.60;;;;;;;12.10;52.61;97875.16;5076621;28;40607;-80
2023/02/25 09:39:29;;;;;;;6.50;3.73;;;;;;;12.04;52.28;97890.72;5093968;28;42706;-80
2023/02/25 09:42:02;;;;;;;7.03;3.40;;;;;;;11.85;52.88;97894.94;5094804;28;42335;-80
2023/02/25 09:44:32;;;;;;;5.60;2.83;;;;;;;11.39;55.68;97884.56;5092067;28;40311;-81
2023/02/25 09:47:04;;;;;;;7.03;2.80;;;;;;;10.91;57.05;97870.78;5094751;28;41439;-81
2023/02/25 09:49:35;;;;;;;7.20;3.50;;;;;;;10.38;58.26;97872.38;5093750;28;42992;-80
2023/02/25 09:52:07;;;;;;;5.87;3.00;;;;;;;9.93;60.18;97858.16;5093290;28;40834;-80
2023/02/25 09:54:43;;;;;;;9.10;4.20;;;;;;;9.38;60.96;97832.41;5091450;28;40736;-81
2023/02/25 09:57:17;;;;;;;6.17;3.90;;;;;;;9.05;62.86;97831.25;5076139;28;40805;-80
2023/02/25 09:59:45;;;;;;;10.83;3.87;;;;;;;8.74;65.07;97826.50;5124498;27;42727;-80
2023/02/25 10:02:36;;;;;;;6.70;3.50;;;;;;;8.43;65.83;97825.19;5093979;28;43133;-80
2023/02/25 10:05:18;;;;;;;11.87;3.87;;;;;;;8.30;66.77;97828.63;5076330;28;38793;-79
2023/02/25 10:07:57;;;;;;;4.27;2.90;;;;;;;8.32;66.95;97788.16;5091112;28;41888;-79
2023/02/25 10:10:35;;;;;;;7.83;3.53;;;;;;;8.91;65.91;97813.75;5089959;28;42781;-79
2023/02/25 10:13:12;;;;;;;8.03;3.80;;;;;;;9.42;63.52;97845.25;5076394;28;42526;-79
2023/02/25 10:15:55;;;;;;;6.00;3.37;;;;;;;9.67;62.78;97845.09;5091690;28;40864;-81
2023/02/25 10:18:34;;;;;;;7.13;3.40;;;;;;;9.60;61.97;97841.25;5094395;28;42849;-78
2023/02/25 10:21:12;;;;;;;6.73;3.43;;;;;;;9.51;61.76;97835.81;5076271;28;41949;-80
2023/02/25 10:23:56;;;;;;;7.63;3.70;;;;;;;9.28;62.19;97774.09;5100240;28;42310;-79
2023/02/25 10:26:31;;;;;;;7.53;3.90;;;;;;;9.63;62.13;97842.81;5089733;28;38910;-80
2023/02/25 10:29:04;;;;;;;5.57;3.60;;;;;;;9.75;62.32;97841.06;5107821;28;40691;-78
2023/02/25 10:31:33;;;;;;;6.70;3.03;;;;;;;10.16;61.36;97841.38;5124302;28;41624;-81
2023/02/25 10:34:21;;;;;;;7.70;3.23;;;;;;;10.80;57.59;97869.00;5100215;28;42347;-80
2023/02/25 10:36:54;;;;;;;4.30;2.57;;;;;;;10.56;57.35;97872.72;5126015;27;40892;-80
2023/02/25 10:39:22;;;;;;;5.83;2.70;;;;;;;10.20;58.87;97842.03;5076632;28;40954;-81
2023/02/25 10:41:51;;;;;;;5.20;3.33;;;;;;;9.94;58.06;97873.06;5075761;28;41870;-78
2023/02/25 10:44:19;;;;;;;5.93;3.13;;;;;;;9.62;58.90;97857.84;5092979;28;41899;-80
2023/02/25 10:46:52;;;;;;;8.70;3.70;;;;;;;9.53;60.56;97858.50;5093421;28;40028;-81
2023/02/25 10:49:24;;;;;;;8.57;2.80;;;;;;;9.59;59.81;97860.72;5090793;28;42475;-79
2023/02/25 10:52:02;;;;;;;7.37;3.23;;;;;;;9.86;60.17;97855.16;5091230;28;42821;-80
2023/02/25 10:54:31;;;;;;;5.13;3.03;;;;;;;11.94;57.43;97857.97;5092819;28;41173;-79
2023/02/25 10:57:10;;;;;;;6.07;2.60;;;;;;;14.70;51.55;97904.13;5093346;28;40959;-80
2023/02/25 10:59:40;;;;;;;5.40;2.97;;;;;;;16.26;47.14;97911.09;5092587;28;41816;-79
2023/02/25 11:02:22;;;;;;;5.13;3.00;;;;;;;16.27;46.08;97918.94;5092192;28;42787;-79
2023/02/25 11:04:52;;;;;;;6.13;3.07;;;;;;;15.89;46.55;97909.44;5075585;28;41221;-80
2023/02/25 11:07:25;;;;;;;4.00;2.40;;;;;;;15.57;45.18;97911.78;5075014;28;39715;-79
2023/02/25 11:10:09;;;;;;;5.70;2.63;;;;;;;15.21;45.93;97895.63;5109233;28;41757;-81
2023/02/25 11:12:44;;;;;;;5.93;2.57;;;;;;;16.01;44.47;97907.38;5074620;28;41569;-80
2023/02/25 11:15:27;;;;;;;5.23;2.60;;;;;;;17.03;43.09;97918.34;5090439;28;42076;-79
2023/02/25 11:17:59;;;;;;;5.07;2.50;;;;;;;16.07;42.22;97904.91;5092142;28;38914;-79
2023/02/25 11:20:31;;;;;;;3.47;2.20;;;;;;;15.37;44.33;97903.84;5091945;28;42019;-80
2023/02/25 11:22:59;;;;;;;3.90;2.30;;;;;;;14.49;45.33;97906.97;5092024;28;42043;-79
2023/02/25 11:25:36;;;;;;;4.47;2.27;;;;;;;13.89;47.93;97887.66;5074841;28;41030;-81
2023/02/25 11:28:08;;;;;;;5.00;2.63;;;;;;;13.09;48.37;97889.63;5090244;28;39881;-79
2023/02/25 11:30:37;;;;;;;2.93;2.50;;;;;;;12.33;50.79;97881.16;5123092;27;41795;-79
2023/02/25 11:33:16;;;;;;;4.63;2.70;;;;;;;11.67;53.35;97871.69;5091682;28;41809;-81
2023/02/25 11:35:44;;;;;;;5.13;2.97;;;;;;;10.91;54.65;97854.91;5109103;28;40970;-79
2023/02/25 11:38:24;;;;;;;4.27;1.80;;;;;;;10.29;55.96;97867.78;5092314;28;39761;-79
2023/02/25 11:40:52;;;;;;;2.50;1.73;;;;;;;9.88;57.30;97865.63;5089437;28;41708;-81
2023/02/25 11:43:23;;;;;;;2.07;1.37;;;;;;;9.42;58.49;97828.53;5091660;28;43239;-79
2023/02/25 11:45:55;;;;;;;3.63;1.27;;;;;;;9.35;59.82;97833.47;5090970;28;41304;-80
2023/02/25 11:48:27;;;;;;;1.77;1.23;;;;;;;9.78;61.65;97830.22;5088873;28;40839;-82
2023/02/25 11:51:08;;;;;;;2.80;2.07;;;;;;;11.45;60.73;97830.19;5091427;28;40578;-80
2023/02/25 11:53:51;;;;;;;3.53;1.90;;;;;;;14.16;54.88;97856.84;5091674;28;41443;-79
2023/02/25 11:56:25;;;;;;;3.40;2.50;;;;;;;14.52;52.76;97849.91;5091247;28;41099;-79
2023/02/25 11:59:13;;;;;;;2.23;1.83;;;;;;;13.83;52.19;97876.75;5088757;28;39943;-79
2023/02/25 12:01:59;;;;;;;3.47;2.50;;;;;;;12.85;53.19;97882.84;5092572;28;42707;-82
2023/02/25 12:04:56;;;;;;;5.30;2.90;;;;;;;11.76;54.66;97877.09;5122729;27;43293;-79
2023/02/25 12:07:59;;;;;;;4.70;3.20;;;;;;;10.86;57.30;97857.09;5069198;28;41071;-79
2023/02/25 12:10:55;;;;;;;3.97;1.80;;;;;;;9.84;57.95;97845.66;5092339;28;40664;-80
2023/02/25 12:14:09;;;;;;;2.80;1.63;;;;;;;9.35;60.32;97844.03;5091735;28;40304;-79
2023/02/25 12:17:07;;;;;;;2.73;1.80;;;;;;;9.04;61.40;97836.63;5066274;28;42967;-80
2023/02/25 12:20:06;;;;;;;3.07;1.50;;;;;;;8.90;62.11;97830.56;5092915;28;42264;-79
2023/02/25 12:23:02;;;;;;;2.10;1.37;;;;;;;8.72;62.95;97829.25;5092348;28;40630;-79
2023/02/25 12:25:38;;;;;;;2.53;1.60;;;;;;;8.75;63.82;97817.63;5074444;28;41208;-80
2023/02/25 12:28:25;;;;;;;2.70;1.90;;;;;;;9.02;64.41;97817.44;5092014;28;41782;-80
2023/02/25 12:31:14;;;;;;;2.33;2.00;;;;;;;9.02;64.73;97808.53;5089012;28;42176;-79
2023/02/25 12:34:02;;;;;;;2.77;2.00;;;;;;;9.11;64.96;97830.81;5074618;28;38995;-79
2023/02/25 12:36:58;;;;;;;3.10;2.17;;;;;;;9.05;64.80;97828.59;5074149;28;43289;-79
2023/02/25 12:39:53;;;;;;;4.30;3.03;;;;;;;9.05;65.31;97825.13;5091171;28;42712;-79
2023/02/25 12:42:39;;;;;;;6.00;3.03;;;;;;;9.09;65.67;97816.88;5076060;28;42587;-79
2023/02/25 12:45:28;;;;;;;3.03;2.17;;;;;;;9.26;66.22;97820.94;5122465;27;40976;-79
2023/02/25 12:48:12;;;;;;;5.47;2.67;;;;;;;9.05;65.52;97825.13;5108562;28;40441;-79
2023/02/25 12:50:56;;;;;;;3.60;2.27;;;;;;;8.68;65.48;97819.00;5108058;28;42430;-79
2023/02/25 12:53:48;;;;;;;4.37;2.63;;;;;;;8.56;66.87;97842.69;5074236;28;41155;-79
2023/02/25 12:56:43;;;;;;;2.43;1.87;;;;;;;8.41;67.59;97835.00;5089340;28;39968;-79
2023/02/25 12:59:27;;;;;;;4.97;2.47;;;;;;;8.21;68.14;97821.38;5111107;28;41905;-79
2023/02/25 13:02:12;;;;;;;3.90;2.57;;;;;;;8.14;68.21;97843.84;5077257;28;42045;-79
2023/02/25 13:04:58;;;;;;;2.77;2.13;;;;;;;7.88;68.83;97853.53;5094649;28;41869;-79
2023/02/25 13:07:52;;;;;;;2.93;1.47;;;;;;;7.54;69.03;97849.66;5111175;28;39686;-79
2023/02/25 13:10:58;;;;;;;2.50;1.47;;;;;;;7.24;69.14;97833.25;5077383;28;40925;-79
2023/02/25 13:17:25;;;;;;;1.30;1.17;;;;;;;7.17;69.24;97831.97;5109890;28;20528;-79
2023/02/25 13:20:15;;;;;;;2.07;1.20;;;;;;;7.39;68.59;97845.44;5106615;28;40779;-79
2023/02/25 13:22:56;;;;;;;1.63;1.20;;;;;;;7.60;68.00;97850.22;5109090;28;41383;-78
2023/02/25 13:25:38;;;;;;;1.33;1.20;;;;;;;8.90;68.47;97843.75;5108747;28;42646;-79
2023/02/25 13:28:17;;;;;;;1.77;1.27;;;;;;;12.54;62.20;97858.06;5109028;28;40978;-80
2023/02/25 13:30:52;;;;;;;3.97;1.20;;;;;;;14.48;55.53;97875.16;5108674;28;39750;-80
2023/02/25 13:33:36;;;;;;;1.13;0.90;;;;;;;15.40;51.57;97911.53;5105594;28;41469;-80
2023/02/25 13:36:21;;;;;;;1.33;0.70;;;;;;;16.20;49.14;97911.69;5125494;27;42039;-80
2023/02/25 13:39:07;;;;;;;0.50;0.50;;;;;;;17.08;46.49;97916.00;5125577;27;41086;-80
2023/02/25 13:41:53;;;;;;;1.00;0.73;;;;;;;18.25;44.12;97925.75;5091223;28;38929;-80
2023/02/25 13:44:53;;;;;;;0.60;0.60;;;;;;;19.54;40.12;97949.88;5105092;28;41694;-80
2023/02/25 13:47:50;;;;;;;0.90;0.60;;;;;;;20.54;37.64;97953.47;5091097;28;41873;-80
2023/02/25 13:50:32;;;;;;;2.20;1.20;;;;;;;21.35;38.07;97953.56;5108051;28;42100;-80
2023/02/25 13:53:13;;;;;;;1.17;0.80;;;;;;;22.02;35.26;97961.50;5106354;28;40712;-81
2023/02/25 13:56:01;;;;;;;1.40;1.03;;;;;;;22.41;34.58;97962.94;5106640;28;42847;-81
2023/02/25 13:58:42;;;;;;;1.40;0.83;;;;;;;22.82;34.35;97957.75;5142197;27;42962;-80
2023/02/25 14:01:25;;;;;;;0.90;0.80;;;;;;;23.11;33.54;97960.28;5141751;27;43052;-81
2023/02/25 14:04:32;;;;;;;1.93;1.00;;;;;;;23.51;31.61;97995.66;5108055;28;39796;-81
2023/02/25 14:07:32;;;;;;;1.83;0.93;;;;;;;23.32;33.57;97986.38;5107981;28;40751;-81
2023/02/25 14:10:16;;;;;;;0.80;0.70;;;;;;;21.64;34.24;97959.94;5096105;28;41702;-80
2023/02/25 14:12:54;;;;;;;1.00;0.90;;;;;;;20.09;35.33;97961.34;5091065;28;41079;-81
2023/02/25 14:15:35;;;;;;;1.40;0.90;;;;;;;18.77;37.15;97962.97;5105546;28;39901;-80
2023/02/25 14:18:16;;;;;;;2.07;1.10;;;;;;;17.51;39.00;97926.56;5139263;27;41619;-80
2023/02/25 14:20:55;;;;;;;1.27;1.17;;;;;;;16.69;40.38;97951.19;5106490;28;43022;-80
2023/02/25 14:23:37;;;;;;;1.20;1.10;;;;;;;15.71;41.74;97916.56;5124774;27;41042;-79
2023/02/25 14:26:19;;;;;;;1.20;1.00;;;;;;;14.94;42.96;97932.97;5088647;28;39894;-80
2023/02/25 14:28:56;;;;;;;1.20;0.87;;;;;;;14.15;43.74;97903.91;5090953;28;42007;-79
2023/02/25 14:31:32;;;;;;;1.23;1.00;;;;;;;13.72;45.51;97914.16;5093809;28;41509;-79
2023/02/25 14:34:23;;;;;;;1.37;1.27;;;;;;;13.24;46.70;97913.03;5091817;28;42364;-79
2023/02/25 14:37:03;;;;;;;1.87;1.53;;;;;;;12.82;47.33;97917.63;5111040;28;39240;-79
2023/02/25 14:39:51;;;;;;;1.30;1.20;;;;;;;12.29;48.13;97900.97;5091708;28;41722;-80
2023/02/25 14:42:48;;;;;;;1.43;1.30;;;;;;;11.85;49.29;97917.97;5076823;28;44031;-79
2023/02/25 14:45:21;;;;;;;4.20;2.00;;;;;;;11.12;50.17;97922.09;5093724;28;42590;-79
2023/02/25 14:47:57;;;;;;;2.27;1.60;;;;;;;10.54;51.67;97935.53;5091947;28;39739;-79
2023/02/25 14:50:31;;;;;;;2.07;1.37;;;;;;;10.12;52.54;97929.91;5091785;28;41650;-79
2023/02/25 14:53:29;;;;;;;1.93;1.33;;;;;;;9.85;52.53;97922.22;5093504;28;41869;-79
2023/02/25 14:56:41;;;;;;;2.80;1.00;;;;;;;9.37;51.70;97929.31;5092596;28;42187;-79
2023/02/25 14:59:56;;;;;;;2.53;0.97;;;;;;;9.02;51.66;97938.91;5085711;28;40981;-78
2023/02/25 15:02:53;;;;;;;3.77;1.40;;;;;;;8.82;52.06;97943.78;5054629;28;41658;-78
2023/02/25 15:05:44;;;;;;;2.20;0.93;;;;;;;8.47;51.09;97942.75;5092923;28;42864;-78
2023/02/25 15:08:37;;;;;;;1.60;1.10;;;;;;;8.39;51.58;97968.81;5076259;28;41309;-78
2023/02/25 15:11:38;;;;;;;1.87;1.27;;;;;;;8.27;52.26;97960.75;5126778;27;40535;-79
2023/02/25 15:14:32;;;;;;;4.20;1.50;;;;;;;8.19;52.69;97952.50;5113461;28;40812;-78
2023/02/25 15:17:25;;;;;;;2.93;1.30;;;;;;;8.16;53.06;97946.59;5130643;27;43573;-79
2023/02/25 15:20:25;;;;;;;5.33;1.33;;;;;;;8.05;52.80;97946.44;5095282;28;42169;-78
2023/02/25 15:23:03;;;;;;;3.83;1.57;;;;;;;7.93;52.91;97953.38;5128314;27;40799;-80
2023/02/25 15:25:47;;;;;;;2.23;1.70;;;;;;;7.62;53.22;97935.28;5125678;27;41786;-78
2023/02/25 15:28:35;;;;;;;2.53;1.20;;;;;;;7.61;53.71;97960.78;5090064;28;42751;-79
2023/02/25 15:31:10;;;;;;;4.33;1.50;;;;;;;7.55;52.80;97959.38;5075839;28;43012;-78
2023/02/25 15:33:40;;;;;;;1.50;1.10;;;;;;;7.63;53.41;97968.59;5093233;28;39905;-79
2023/02/25 15:36:39;;;;;;;3.70;1.10;;;;;;;7.58;52.48;97977.63;5075528;28;40629;-79
2023/02/25 15:39:10;;;;;;;2.93;1.03;;;;;;;7.49;53.13;97986.13;5091487;28;43452;-80
2023/02/25 15:41:44;;;;;;;3.90;1.10;;;;;;;7.39;52.79;97986.81;5109458;28;41196;-79
2023/02/25 15:44:37;;;;;;;2.33;1.17;;;;;;;7.30;53.74;97982.09;5076387;28;39884;-79
2023/02/25 15:47:28;;;;;;;3.23;1.13;;;;;;;7.12;54.30;97984.13;5092740;28;43340;-78
2023/02/25 15:49:58;;;;;;;1.93;1.40;;;;;;;6.98;54.46;97982.34;5075463;28;41983;-78